Wilmington, North Carolina
Current Conditions -  °F | °C
As of 10:53 PM on Saturday 25 Oct 2014 (Local Time) from KILM Reporting Station
Clear Clear  
Wind Chill: 55°   Ceiling: Unl
Heat Index: 55°   Visibility: 10mi
Dew Point: 49°   Wind: 3mph
Humidity: 80%   Direction: 260°W
Pressure: 29.93"   Gusts: NA
Location:  34.24°N, 77.94°W
Report Text: KILM 260253Z AUTO 26003KT 10SM CLR 13/09 A2993 RMK AO2 SLP133 T01280094 56002
Loading
Personal Weather Stations






























Interactive Weather Map
Tropical Storm Tracking
New forecast layout! Learn more

10-Day Weather Forecast

Advertisements
Track Severe Weather on mobile